Fairbanks International, AK

6:15 PM AKST on November 20, 2014 (GMT -0900)
Ladd Army Air Field | Change Station
CLOSE
Current Station
Airport
Location: Fairbanks Ft. Wainwright,
Elevation: 453 ft
Nearby Weather Stations

Elev 453 ft 64.84 °N, 147.61 °W | Updated 20 minutes ago

Scattered Clouds
Scattered Clouds
7 °F
Feels Like 7 °F
N
0
Wind Variable Wind from North

Today
High -- | Low -- °F
--% Chance of Precip.
Yesterday
High -- | Low -- °F
Precip. -- in
9:44 AM 3:29 PM
Waning Crescent, 2% visible
Pressure 29.46 in
Visibility 10.0 miles
Clouds Few 8000 ft
Scattered Clouds 18000 ft
Dew Point 1 °F
Humidity 79%
Rainfall 0.00 in
Snow Depth Not available.
UV 0 out of 12
Pollen Not available.
Air Quality Not available.
Flu Activity Not available.
METAR PAFB 210255Z 00000KT 10SM FEW080 SCT180 M14/M17 A2942 RMK SLP975 56017

More Conditions Fewer Conditions

Pressure 29.46 in
Visibility 10.0 miles
Clouds Few 8000 ft
Scattered Clouds 18000 ft
Dew Point 1 °F
Humidity 79%
Rainfall 0.00 in
Snow Depth Not available.
UV 0 out of 12
Pollen Not available.
Air Quality Not available.
Flu Activity Not available.
METAR PAFB 210255Z 00000KT 10SM FEW080 SCT180 M14/M17 A2942 RMK SLP975 56017

More Conditions Fewer Conditions

10-Day Weather Forecast

Almanac

Astronomy

Nov. 20, 2014 Rise Set
Actual Time
Civil Twilight
Nautical Twilight
Astronomical Twilight
Moon
Length of Visible Light
Length of Day
Tomorrow will be .
, % of the Moon is Illuminated

Today's Extremes

State Highs State Lows

Community

WunderPhotos

Upload Photos

1,772,610 photos uploaded!

WunderBlogs® & News

Nearby

Air Quality

  Air Quality AQ Index Pollutant
Not available.

Snow Depth

Station Depth Elevation

Earthquake Activity

City Distance Mag. Time & Date
Minimum magnitude displayed is 2.5.

Coastal Water Temperatures

Place Temperature

Nearby Weather Stations